Tropical Cyclones
[Index]
Main Index Home Page Stock Weather Photos Extreme Storms Discussion Storm News and Storm Chasing Reports Tropical Cyclones / Hurricanes / Typhoons Weather Data and Links Wild Fires / Bushfires Weather Observation Techniques Weather Picture Catalogue Tornado Pictures and Reports Stock Video Footage and DVDs for sale
Season 2008-2009 Tropical Cyclone IZILDA Track Map
Season 2008-2009 Summaries (Operational Data): [AU] [SIO] [SPAC] [SH]
<<- Previous TC | 2008-2009 Season | Next TC ->>

click for intensity scale information  Lat/long Grid: Show Hide

 Date Labels: Show Hide

Operational Tropical Cyclone Data : JTWC Advisories

Name: IZILDA
Number: 0924

24 Mar 2009 02:00 UTC to 29 Mar 2009 06:00 UTC

    date/time    lat    long     hPa   cat  kts
2009-03-24 02   20.7    41.3                             
2009-03-24 06   20.8    41.7    1000         25          
2009-03-24 12   21.6    41.2     998         30          
2009-03-24 18   22.4    41.9     994    1    35          
2009-03-25 00   23.1    42.2     991    1    40          
2009-03-25 06   23.0    42.1     991    1    40          
2009-03-25 12   23.6    42.2     988    1    45          
2009-03-25 18   23.7    42.5     978    2    55          
2009-03-26 00   23.6    43.0     974    2    60          
2009-03-26 06   23.8    42.6     985    2    50          
2009-03-26 12   23.8    42.3     993    1    40          
2009-03-26 18   23.6    41.8     994    1    40          
2009-03-27 00   23.6    41.4     995    1    35          
2009-03-27 06   23.4    41.8    1002         25          
2009-03-27 12   23.1    41.1    1003         25          
2009-03-27 18   22.4    40.5    1004         20          
2009-03-28 00   22.1    40.1    1007                     
2009-03-28 06   21.8    39.4    1007         18          
2009-03-28 12   21.8    38.9    1007         18          
2009-03-28 18   21.5    38.3    1007         18          
2009-03-29 00   21.4    37.9    1007         18          
2009-03-29 06   20.8    36.3    1007         18          
Winds are 10-min average.

Tropical cyclone tracks developed by Michael Bath using operational warnings and advisories and Google Maps.


[Australian Severe Weather index] [Copyright Notice] [Email Contacts] [Search This Site] [Privacy Policy]
Document: tropical_cyclone_izilda.htm Updated: 28 May 2013